首页
METAR-TAF:

METAR-TAF

机场 :

尼斯蓝色海岸机场

尼斯, 法国

纬度: 43-39N, 经度: 007-12E, 海拔: 4米

当前天气观测

该预报发布于39分钟前的19:30 UTC
风速6节,风向西北
温度 11°C
湿度 82%
气压 1026 hPa
能见度10公里或以上
1500米以下无云,无积雨云

METAR: LFMN 211930Z 32006KT CAVOK 11/08 Q1026 NOSIG

时间: 21:09 (20:09 UTC)

预报

该预报发布于6小时和9分钟前的14:00 UTC
预报有效从21日的 15点(UTC)到 22日的 21点(UTC)
风速10节,风向东转东南
能见度10公里或以上
1500米以下无云,无积雨云
成为
从 21日的 18点(UTC)到 21日的 20点(UTC)
风速10节,风向北转西北
短暂存在
从 21日的 20点(UTC)到 22日的 09点(UTC)
多云层高于1400英尺
成为
从 22日的 12点(UTC)到 22日的 14点(UTC)
风速10节,风向南转西南
能见度10公里或以上
散云层高于1400英尺
成为
从 22日的 19点(UTC)到 22日的 21点(UTC)
风速10节,风向北转西北

TAF: LFMN 211400Z 2115/2221 11010KT CAVOK BECMG 2118/2120 34010KT TEMPO 2120/2209 BKN014 BECMG 2212/2214 20010KT 9999 SCT014 BECMG 2219/2221 34010KT

超过4000个机场的气象观测和天气预报(METAR&TAF报告)。

可查询的气象台以黄色和红色小点在地图上表示。

将鼠标移到小点上方,可查看气象台名称。

然后点击查看天气观测和预报。

如需切换地图:点击带黑十字的绿色按钮放大地图;点击带横线的绿色按钮缩小地图;或者点击绿色箭头查看邻近地区的地图。


METAR-TAF: